Time,TemperatureF,DewpointF,PressureIn,WindDirection,WindDirectionDegrees,WindSpeedMPH,WindSpeedGustMPH,Humidity,HourlyPrecipIn,Conditions,Clouds,dailyrainin,SoftwareType,DateUTC
2013-01-12 00:00:00,38.6,37.6,30.10,North,359,0.0,0.0,96,0.07,,---,0.00,VWS V14.01,2013-01-12 05:00:00,
2013-01-12 08:27:00,41.3,40.2,30.15,North,359,0.0,0.0,96,0.07,,---,0.02,VWS V14.01,2013-01-12 13:27:00,
2013-01-12 08:30:00,41.3,40.2,30.15,North,359,0.0,0.0,96,0.07,,---,0.02,VWS V14.01,2013-01-12 13:30:00,
2013-01-12 08:42:00,41.6,40.5,30.15,North,358,1.0,1.0,96,0.00,,---,0.02,VWS V14.01,2013-01-12 13:42:00,
2013-01-12 08:45:00,41.6,40.5,30.15,North,358,1.0,1.0,96,0.00,,---,0.02,VWS V14.01,2013-01-12 13:45:00,
2013-01-12 08:57:00,41.7,40.7,30.15,North,359,0.0,1.0,96,0.00,,---,0.02,VWS V14.01,2013-01-12 13:57:00,
2013-01-12 09:00:00,41.7,40.7,30.15,North,359,0.0,1.0,96,0.00,,---,0.02,VWS V14.01,2013-01-12 14:00:00,
2013-01-12 09:12:00,41.9,40.8,30.15,North,359,0.0,1.0,96,0.00,,---,0.02,VWS V14.01,2013-01-12 14:12:00,
2013-01-12 09:15:00,41.9,40.8,30.15,North,359,0.0,1.0,96,0.00,,---,0.02,VWS V14.01,2013-01-12 14:15:00,
2013-01-12 09:27:00,42.3,41.2,30.14,North,359,0.0,1.0,96,0.00,,---,0.02,VWS V14.01,2013-01-12 14:27:00,
2013-01-12 09:30:00,42.3,41.2,30.14,North,359,0.0,1.0,96,0.00,,---,0.02,VWS V14.01,2013-01-12 14:30:00,
2013-01-12 09:42:00,42.8,41.7,30.14,North,360,0.0,1.0,96,0.00,,---,0.02,VWS V14.01,2013-01-12 14:42:00,
2013-01-12 09:45:00,42.8,41.7,30.14,North,360,0.0,1.0,96,0.00,,---,0.02,VWS V14.01,2013-01-12 14:45:00,
2013-01-12 09:57:00,43.3,42.2,30.15,North,358,0.0,1.0,96,0.00,,---,0.02,VWS V14.01,2013-01-12 14:57:00,
2013-01-12 10:00:00,43.3,42.2,30.15,North,358,0.0,1.0,96,0.00,,---,0.02,VWS V14.01,2013-01-12 15:00:00,
2013-01-12 10:12:00,43.5,42.4,30.15,North,359,0.0,1.0,96,0.00,,---,0.02,VWS V14.01,2013-01-12 15:12:00,
2013-01-12 10:15:00,43.5,42.4,30.15,North,359,0.0,1.0,96,0.00,,---,0.02,VWS V14.01,2013-01-12 15:15:00,
2013-01-12 10:27:00,43.4,42.3,30.16,North,359,0.0,1.0,96,0.00,,---,0.02,VWS V14.01,2013-01-12 15:27:00,
2013-01-12 10:30:00,43.4,42.3,30.16,North,359,0.0,1.0,96,0.00,,---,0.02,VWS V14.01,2013-01-12 15:30:00,
2013-01-12 10:42:00,43.3,42.2,30.16,North,358,0.0,1.0,96,0.00,,---,0.02,VWS V14.01,2013-01-12 15:42:00,
2013-01-12 10:45:00,43.3,42.2,30.16,North,358,0.0,1.0,96,0.00,,---,0.02,VWS V14.01,2013-01-12 15:45:00,
2013-01-12 10:57:00,43.1,42.0,30.15,North,359,0.0,1.0,96,0.00,,---,0.02,VWS V14.01,2013-01-12 15:57:00,
2013-01-12 11:00:00,43.1,42.0,30.15,North,359,0.0,1.0,96,0.00,,---,0.02,VWS V14.01,2013-01-12 16:00:00,
2013-01-12 11:12:00,43.1,42.0,30.15,North,360,0.0,1.0,96,0.00,,---,0.02,VWS V14.01,2013-01-12 16:12:00,
2013-01-12 11:15:00,43.1,42.0,30.15,North,360,0.0,1.0,96,0.00,,---,0.02,VWS V14.01,2013-01-12 16:15:00,
2013-01-12 11:27:00,43.2,42.1,30.14,North,359,0.0,2.0,96,0.00,,---,0.02,VWS V14.01,2013-01-12 16:27:00,
2013-01-12 11:30:00,43.2,42.1,30.14,North,359,0.0,2.0,96,0.00,,---,0.02,VWS V14.01,2013-01-12 16:30:00,
2013-01-12 11:42:00,43.5,42.4,30.14,North,359,0.0,1.0,96,0.00,,---,0.02,VWS V14.01,2013-01-12 16:42:00,
2013-01-12 11:45:00,43.5,42.4,30.14,North,359,0.0,1.0,96,0.00,,---,0.02,VWS V14.01,2013-01-12 16:45:00,
2013-01-12 11:57:00,43.8,42.7,30.13,North,359,0.0,1.0,96,0.00,,---,0.02,VWS V14.01,2013-01-12 16:57:00,
2013-01-12 12:00:00,43.8,42.7,30.13,North,359,0.0,1.0,96,0.00,,---,0.02,VWS V14.01,2013-01-12 17:00:00,
2013-01-12 12:12:00,43.9,42.8,30.12,North,359,0.0,1.0,96,0.00,,---,0.02,VWS V14.01,2013-01-12 17:12:00,
2013-01-12 12:15:00,43.9,42.8,30.12,North,359,0.0,1.0,96,0.00,,---,0.02,VWS V14.01,2013-01-12 17:15:00,
2013-01-12 12:27:00,43.9,42.8,30.12,North,358,0.0,1.0,96,0.00,,---,0.02,VWS V14.01,2013-01-12 17:27:00,
2013-01-12 12:30:00,43.9,42.8,30.12,North,358,0.0,1.0,96,0.00,,---,0.02,VWS V14.01,2013-01-12 17:30:00,
2013-01-12 12:42:00,44.0,42.9,30.13,North,359,0.0,1.0,96,0.00,,---,0.02,VWS V14.01,2013-01-12 17:42:00,
2013-01-12 12:45:00,44.0,42.9,30.13,North,359,0.0,1.0,96,0.00,,---,0.02,VWS V14.01,2013-01-12 17:45:00,
2013-01-12 12:57:00,44.2,43.1,30.14,North,359,0.0,1.0,96,0.00,,---,0.02,VWS V14.01,2013-01-12 17:57:00,
2013-01-12 13:00:00,44.2,43.1,30.14,North,359,0.0,1.0,96,0.00,,---,0.02,VWS V14.01,2013-01-12 18:00:00,
2013-01-12 13:12:00,44.4,43.3,30.14,North,358,1.0,1.0,96,0.00,,---,0.02,VWS V14.01,2013-01-12 18:12:00,
2013-01-12 13:15:00,44.4,43.3,30.14,North,358,1.0,1.0,96,0.00,,---,0.02,VWS V14.01,2013-01-12 18:15:00,
2013-01-12 13:27:00,44.3,43.2,30.14,North,358,0.0,2.0,96,0.00,,---,0.02,VWS V14.01,2013-01-12 18:27:00,
2013-01-12 13:30:00,44.3,43.2,30.14,North,358,0.0,2.0,96,0.00,,---,0.02,VWS V14.01,2013-01-12 18:30:00,
2013-01-12 13:42:00,44.3,43.2,30.14,North,360,2.0,2.0,96,0.00,,---,0.02,VWS V14.01,2013-01-12 18:42:00,
2013-01-12 13:45:00,44.3,43.2,30.14,North,360,2.0,2.0,96,0.00,,---,0.02,VWS V14.01,2013-01-12 18:45:00,
2013-01-12 13:57:00,44.4,43.3,30.13,North,359,0.0,2.0,96,0.00,,---,0.02,VWS V14.01,2013-01-12 18:57:00,
2013-01-12 14:00:00,44.4,43.3,30.13,North,359,0.0,2.0,96,0.00,,---,0.02,VWS V14.01,2013-01-12 19:00:00,
2013-01-12 14:12:00,44.4,43.3,30.12,North,358,0.0,2.0,96,0.00,,---,0.02,VWS V14.01,2013-01-12 19:12:00,
2013-01-12 14:15:00,44.4,43.3,30.12,North,358,0.0,2.0,96,0.00,,---,0.02,VWS V14.01,2013-01-12 19:15:00,
2013-01-12 14:27:00,44.5,43.4,30.13,North,359,0.0,1.0,96,0.00,,---,0.02,VWS V14.01,2013-01-12 19:27:00,
2013-01-12 14:30:00,44.5,43.4,30.13,North,359,0.0,1.0,96,0.00,,---,0.02,VWS V14.01,2013-01-12 19:30:00,
2013-01-12 14:42:00,44.4,43.3,30.13,North,358,0.0,1.0,96,0.00,,---,0.02,VWS V14.01,2013-01-12 19:42:00,
2013-01-12 14:45:00,44.4,43.3,30.13,North,358,0.0,1.0,96,0.00,,---,0.02,VWS V14.01,2013-01-12 19:45:00,
2013-01-12 14:57:00,44.3,43.0,30.12,North,359,1.0,2.0,95,0.00,,---,0.02,VWS V14.01,2013-01-12 19:57:00,
2013-01-12 15:00:00,44.3,43.0,30.12,North,359,1.0,2.0,95,0.00,,---,0.02,VWS V14.01,2013-01-12 20:00:00,
2013-01-12 15:12:00,44.2,42.9,30.12,North,358,0.0,1.0,95,0.00,,---,0.02,VWS V14.01,2013-01-12 20:12:00,
2013-01-12 15:15:00,44.2,42.9,30.12,North,358,0.0,1.0,95,0.00,,---,0.02,VWS V14.01,2013-01-12 20:15:00,
2013-01-12 15:27:00,44.3,43.2,30.13,North,359,1.0,1.0,96,0.00,,---,0.02,VWS V14.01,2013-01-12 20:27:00,
2013-01-12 15:30:00,44.3,43.2,30.13,North,359,1.0,1.0,96,0.00,,---,0.02,VWS V14.01,2013-01-12 20:30:00,
2013-01-12 15:42:00,44.3,43.0,30.13,North,359,1.0,1.0,95,0.00,,---,0.02,VWS V14.01,2013-01-12 20:42:00,
2013-01-12 15:45:00,44.3,43.0,30.13,North,359,1.0,1.0,95,0.00,,---,0.02,VWS V14.01,2013-01-12 20:45:00,
2013-01-12 15:57:00,44.0,42.7,30.13,North,359,0.0,1.0,95,0.00,,---,0.02,VWS V14.01,2013-01-12 20:57:00,
2013-01-12 16:00:00,44.0,42.7,30.13,North,359,0.0,1.0,95,0.00,,---,0.02,VWS V14.01,2013-01-12 21:00:00,
2013-01-12 16:12:00,43.9,42.6,30.14,North,359,0.0,1.0,95,0.00,,---,0.02,VWS V14.01,2013-01-12 21:12:00,
2013-01-12 16:15:00,43.9,42.6,30.14,North,359,0.0,1.0,95,0.00,,---,0.02,VWS V14.01,2013-01-12 21:15:00,
2013-01-12 16:27:00,43.7,42.4,30.14,North,359,0.0,1.0,95,0.00,,---,0.02,VWS V14.01,2013-01-12 21:27:00,
2013-01-12 16:30:00,43.7,42.4,30.14,North,359,0.0,1.0,95,0.00,,---,0.02,VWS V14.01,2013-01-12 21:30:00,
2013-01-12 16:42:00,43.5,42.2,30.14,North,358,0.0,1.0,95,0.00,,---,0.02,VWS V14.01,2013-01-12 21:42:00,
2013-01-12 16:45:00,43.5,42.2,30.14,North,358,0.0,1.0,95,0.00,,---,0.02,VWS V14.01,2013-01-12 21:45:00,
2013-01-12 16:57:00,43.4,42.3,30.15,North,358,0.0,1.0,96,0.00,,---,0.02,VWS V14.01,2013-01-12 21:57:00,
2013-01-12 17:00:00,43.4,42.3,30.15,North,358,0.0,1.0,96,0.00,,---,0.02,VWS V14.01,2013-01-12 22:00:00,
2013-01-12 17:12:00,43.3,42.2,30.15,North,358,0.0,1.0,96,0.00,,---,0.02,VWS V14.01,2013-01-12 22:12:00,
2013-01-12 17:15:00,43.3,42.2,30.15,North,358,0.0,1.0,96,0.00,,---,0.02,VWS V14.01,2013-01-12 22:15:00,
2013-01-12 17:27:00,43.3,42.2,30.16,North,359,0.0,1.0,96,0.00,,---,0.02,VWS V14.01,2013-01-12 22:27:00,
2013-01-12 17:30:00,43.3,42.2,30.16,North,359,0.0,1.0,96,0.00,,---,0.02,VWS V14.01,2013-01-12 22:30:00,
2013-01-12 17:42:00,43.2,42.1,30.15,North,359,0.0,1.0,96,0.00,,---,0.02,VWS V14.01,2013-01-12 22:42:00,
2013-01-12 17:45:00,43.2,42.1,30.15,North,359,0.0,1.0,96,0.00,,---,0.02,VWS V14.01,2013-01-12 22:45:00,
2013-01-12 17:57:00,43.1,42.0,30.15,North,358,0.0,1.0,96,0.00,,---,0.02,VWS V14.01,2013-01-12 22:57:00,
2013-01-12 18:00:00,43.1,42.0,30.15,North,358,0.0,1.0,96,0.00,,---,0.02,VWS V14.01,2013-01-12 23:00:00,
2013-01-12 18:12:00,43.0,41.9,30.15,North,358,0.0,1.0,96,0.00,,---,0.02,VWS V14.01,2013-01-12 23:12:00,
2013-01-12 18:15:00,43.0,41.9,30.15,North,358,0.0,1.0,96,0.00,,---,0.02,VWS V14.01,2013-01-12 23:15:00,
2013-01-12 18:27:00,42.9,41.8,30.14,North,359,0.0,1.0,96,0.00,,---,0.02,VWS V14.01,2013-01-12 23:27:00,
2013-01-12 18:30:00,42.9,41.8,30.14,North,359,0.0,1.0,96,0.00,,---,0.02,VWS V14.01,2013-01-12 23:30:00,
2013-01-12 18:42:00,42.9,41.8,30.14,North,358,0.0,0.0,96,0.00,,---,0.02,VWS V14.01,2013-01-12 23:42:00,
2013-01-12 18:45:00,42.9,41.8,30.14,North,358,0.0,0.0,96,0.00,,---,0.02,VWS V14.01,2013-01-12 23:45:00,
2013-01-12 18:57:00,42.9,41.8,30.14,North,359,0.0,0.0,96,0.00,,---,0.02,VWS V14.01,2013-01-12 23:57:00,
2013-01-12 19:00:00,42.9,41.8,30.14,North,359,0.0,0.0,96,0.00,,---,0.02,VWS V14.01,2013-01-13 00:00:00,
2013-01-12 19:12:00,43.0,41.9,30.14,North,359,0.0,1.0,96,0.00,,---,0.02,VWS V14.01,2013-01-13 00:12:00,
2013-01-12 19:15:00,43.0,41.9,30.14,North,359,0.0,1.0,96,0.00,,---,0.02,VWS V14.01,2013-01-13 00:15:00,
2013-01-12 19:27:00,43.1,42.0,30.15,North,358,0.0,1.0,96,0.00,,---,0.02,VWS V14.01,2013-01-13 00:27:00,
2013-01-12 19:30:00,43.1,42.0,30.15,North,358,0.0,1.0,96,0.00,,---,0.02,VWS V14.01,2013-01-13 00:30:00,
2013-01-12 19:45:00,43.1,42.0,30.15,North,0,0.0,1.0,96,0.00,,---,0.02,VWS V14.01,2013-01-13 00:45:00,
2013-01-12 20:00:00,43.0,41.9,30.15,North,0,0.0,1.0,96,0.00,,---,0.02,VWS V14.01,2013-01-13 01:00:00,
2013-01-12 20:15:00,43.0,41.9,30.15,North,0,0.0,0.0,96,0.00,,---,0.02,VWS V14.01,2013-01-13 01:15:00,
2013-01-12 20:30:00,43.0,41.9,30.14,North,0,0.0,0.0,96,0.00,,---,0.02,VWS V14.01,2013-01-13 01:30:00,
2013-01-12 20:45:00,42.9,41.8,30.14,North,0,0.0,1.0,96,0.00,,---,0.02,VWS V14.01,2013-01-13 01:45:00,
2013-01-12 21:00:00,43.0,41.9,30.13,North,0,0.0,1.0,96,0.00,,---,0.02,VWS V14.01,2013-01-13 02:00:00,
2013-01-12 21:15:00,43.0,41.9,30.13,North,0,0.0,0.0,96,0.00,,---,0.02,VWS V14.01,2013-01-13 02:15:00,
2013-01-12 21:30:00,43.1,42.0,30.12,North,0,0.0,1.0,96,0.00,,---,0.02,VWS V14.01,2013-01-13 02:30:00,
2013-01-12 21:45:00,43.0,41.9,30.12,North,0,0.0,1.0,96,0.00,,---,0.02,VWS V14.01,2013-01-13 02:45:00,
2013-01-12 22:00:00,42.9,41.8,30.13,North,0,0.0,1.0,96,0.00,,---,0.02,VWS V14.01,2013-01-13 03:00:00,
2013-01-12 22:15:00,42.9,41.8,30.12,North,0,0.0,1.0,96,0.00,,---,0.02,VWS V14.01,2013-01-13 03:15:00,
2013-01-12 22:30:00,42.9,41.8,30.12,North,0,0.0,0.0,96,0.00,,---,0.02,VWS V14.01,2013-01-13 03:30:00,
2013-01-12 22:45:00,42.8,41.7,30.12,North,0,0.0,1.0,96,0.00,,---,0.02,VWS V14.01,2013-01-13 03:45:00,
2013-01-12 23:00:00,42.8,41.7,30.12,North,0,0.0,0.0,96,0.00,,---,0.02,VWS V14.01,2013-01-13 04:00:00,
2013-01-12 23:15:00,42.8,41.7,30.12,North,0,0.0,1.0,96,0.00,,---,0.02,VWS V14.01,2013-01-13 04:15:00,
2013-01-12 23:30:00,42.9,41.8,30.13,North,0,0.0,1.0,96,0.00,,---,0.02,VWS V14.01,2013-01-13 04:30:00,
2013-01-12 23:45:00,42.9,41.8,30.14,North,0,0.0,2.0,96,0.00,,---,0.02,VWS V14.01,2013-01-13 04:45:00,